AFR419 EHRD-LFPG
Flight info
| Callsign | AFR419 |
|---|---|
| Flight time | 0h 50m |
| Altitude | 23000 |
| Route | WOODY N872 CIV/N0395F190 Y50 IDOKO/N0384F170 Y50 MATIX |
| Aircraft | A320/M-SDE3FGHIRWY/LB1 |
Departure
| Time | 2026-05-08 12:51 |
|---|---|
| Airport | Rotterdam The Hague Airport (EHRD) |
Arrival
| Time | 2026-05-08 13:41 |
|---|---|
| Airport | Charles de Gaulle International Airport (LFPG) |
| Time | Latitude | Longitude | Altitude | Speed | Heading |
|---|---|---|---|---|---|
| 2026-05-08 12:42 | 51.95165 | 4.43350 | 28 ft | 0 kts | 325° |
| 2026-05-08 12:48 | 51.95172 | 4.43342 | 1 ft | 4 kts | 325° |
| 2026-05-08 12:48 | 51.95196 | 4.43285 | 1 ft | 5 kts | 245° |
| 2026-05-08 12:48 | 51.95167 | 4.43211 | 1 ft | 11 kts | 240° |
| 2026-05-08 12:48 | 51.95128 | 4.43087 | 1 ft | 12 kts | 245° |
| 2026-05-08 12:49 | 51.95108 | 4.42981 | 1 ft | 9 kts | 278° |
| 2026-05-08 12:49 | 51.95144 | 4.42914 | 1 ft | 7 kts | 325° |
| 2026-05-08 12:49 | 51.95182 | 4.42874 | 2 ft | 6 kts | 327° |
| 2026-05-08 12:49 | 51.95216 | 4.42855 | 2 ft | 4 kts | 28° |
| 2026-05-08 12:50 | 51.95233 | 4.42885 | 2 ft | 3 kts | 56° |
| 2026-05-08 12:50 | 51.95271 | 4.42981 | 2 ft | 32 kts | 57° |
| 2026-05-08 12:50 | 51.95540 | 4.43656 | -1 ft | 106 kts | 57° |
| 2026-05-08 12:50 | 51.96035 | 4.44927 | 61 ft | 153 kts | 60° |
| 2026-05-08 12:51 | 51.96624 | 4.46435 | 676 ft | 163 kts | 58° |
| 2026-05-08 12:51 | 51.97641 | 4.49106 | 1881 ft | 171 kts | 59° |
| 2026-05-08 12:51 | 51.98291 | 4.50813 | 2410 ft | 186 kts | 58° |
| 2026-05-08 12:52 | 51.98931 | 4.52799 | 2857 ft | 211 kts | 64° |
| 2026-05-08 12:52 | 52.00366 | 4.57728 | 2984 ft | 255 kts | 68° |
| 2026-05-08 12:52 | 52.00567 | 4.60540 | 2984 ft | 256 kts | 102° |
| 2026-05-08 12:53 | 51.99244 | 4.63601 | 2977 ft | 258 kts | 144° |
| 2026-05-08 12:53 | 51.98205 | 4.64608 | 2988 ft | 259 kts | 153° |
| 2026-05-08 12:53 | 51.96558 | 4.65799 | 2981 ft | 259 kts | 157° |
| 2026-05-08 12:53 | 51.94819 | 4.66543 | 2991 ft | 260 kts | 177° |
| 2026-05-08 12:54 | 51.93630 | 4.66412 | 2989 ft | 260 kts | 190° |
| 2026-05-08 12:54 | 51.91404 | 4.64924 | 2976 ft | 262 kts | 216° |
| 2026-05-08 12:54 | 51.90146 | 4.62817 | 3015 ft | 264 kts | 235° |
| 2026-05-08 12:54 | 51.89104 | 4.60369 | 3802 ft | 268 kts | 235° |
| 2026-05-08 12:55 | 51.88384 | 4.58704 | 4591 ft | 268 kts | 233° |
| 2026-05-08 12:55 | 51.86580 | 4.55971 | 5049 ft | 269 kts | 211° |
| 2026-05-08 12:55 | 51.84884 | 4.54741 | 5104 ft | 268 kts | 195° |
| 2026-05-08 12:55 | 51.83077 | 4.54026 | 5111 ft | 267 kts | 193° |
| 2026-05-08 12:56 | 51.81268 | 4.53304 | 5113 ft | 267 kts | 194° |
| 2026-05-08 12:56 | 51.79469 | 4.52570 | 5111 ft | 267 kts | 194° |
| 2026-05-08 12:56 | 51.77645 | 4.51821 | 5655 ft | 272 kts | 194° |
| 2026-05-08 12:56 | 51.75819 | 4.51066 | 6736 ft | 272 kts | 194° |
| 2026-05-08 12:57 | 51.73975 | 4.50303 | 7712 ft | 274 kts | 194° |
| 2026-05-08 12:57 | 51.72120 | 4.49535 | 8653 ft | 278 kts | 194° |
| 2026-05-08 12:57 | 51.70239 | 4.48757 | 9611 ft | 280 kts | 195° |
| 2026-05-08 12:57 | 51.68328 | 4.47973 | 10379 ft | 290 kts | 195° |
| 2026-05-08 12:58 | 51.66292 | 4.47138 | 10710 ft | 314 kts | 195° |
| 2026-05-08 12:58 | 51.64098 | 4.46238 | 10986 ft | 337 kts | 195° |
| 2026-05-08 12:58 | 51.61761 | 4.45280 | 11390 ft | 353 kts | 195° |
| 2026-05-08 12:58 | 51.59360 | 4.44300 | 12087 ft | 359 kts | 194° |
| 2026-05-08 12:59 | 51.56925 | 4.43310 | 12852 ft | 363 kts | 194° |
| 2026-05-08 12:59 | 51.54466 | 4.42308 | 13620 ft | 367 kts | 195° |
| 2026-05-08 12:59 | 51.51978 | 4.41290 | 14323 ft | 371 kts | 195° |
| 2026-05-08 12:59 | 51.49461 | 4.40260 | 14990 ft | 374 kts | 195° |
| 2026-05-08 13:00 | 51.46931 | 4.39227 | 15651 ft | 377 kts | 194° |
| 2026-05-08 13:00 | 51.44379 | 4.38187 | 16336 ft | 380 kts | 194° |
| 2026-05-08 13:00 | 51.41810 | 4.37142 | 16996 ft | 382 kts | 195° |
| 2026-05-08 13:00 | 51.39301 | 4.35702 | 17635 ft | 385 kts | 205° |
| 2026-05-08 13:01 | 51.36905 | 4.33886 | 18268 ft | 387 kts | 205° |
| 2026-05-08 13:01 | 51.34459 | 4.32028 | 18847 ft | 390 kts | 205° |
| 2026-05-08 13:01 | 51.31965 | 4.30133 | 19378 ft | 393 kts | 205° |
| 2026-05-08 13:01 | 51.29483 | 4.28242 | 19909 ft | 396 kts | 206° |
| 2026-05-08 13:02 | 51.26990 | 4.26344 | 20424 ft | 399 kts | 206° |
| 2026-05-08 13:02 | 51.24472 | 4.24429 | 20948 ft | 402 kts | 206° |
| 2026-05-08 13:02 | 51.21940 | 4.22510 | 21458 ft | 405 kts | 206° |
| 2026-05-08 13:02 | 51.19384 | 4.20582 | 21959 ft | 408 kts | 206° |
| 2026-05-08 13:03 | 51.16800 | 4.18652 | 22453 ft | 411 kts | 204° |
| 2026-05-08 13:03 | 51.14140 | 4.17093 | 22914 ft | 414 kts | 200° |
| 2026-05-08 13:03 | 51.11408 | 4.15585 | 23091 ft | 418 kts | 200° |
| 2026-05-08 13:03 | 51.08619 | 4.14048 | 23116 ft | 431 kts | 200° |
| 2026-05-08 13:04 | 51.05759 | 4.12476 | 23111 ft | 437 kts | 200° |
| 2026-05-08 13:04 | 51.02875 | 4.10898 | 23111 ft | 439 kts | 200° |
| 2026-05-08 13:04 | 50.99984 | 4.09322 | 23111 ft | 439 kts | 200° |
| 2026-05-08 13:04 | 50.97093 | 4.07748 | 23110 ft | 439 kts | 200° |
| 2026-05-08 13:05 | 50.94194 | 4.06172 | 23112 ft | 439 kts | 200° |
| 2026-05-08 13:05 | 50.91307 | 4.04605 | 23111 ft | 440 kts | 200° |
| 2026-05-08 13:05 | 50.88412 | 4.03036 | 23109 ft | 440 kts | 200° |
| 2026-05-08 13:05 | 50.85533 | 4.01398 | 23109 ft | 440 kts | 201° |
| 2026-05-08 13:06 | 50.82679 | 3.99630 | 23109 ft | 439 kts | 203° |
| 2026-05-08 13:06 | 50.79855 | 3.97780 | 23100 ft | 439 kts | 204° |
| 2026-05-08 13:06 | 50.77040 | 3.95897 | 23104 ft | 439 kts | 204° |
| 2026-05-08 13:06 | 50.74219 | 3.94015 | 23107 ft | 439 kts | 204° |
| 2026-05-08 13:07 | 50.71398 | 3.92165 | 23101 ft | 439 kts | 203° |
| 2026-05-08 13:07 | 50.68570 | 3.90343 | 23101 ft | 439 kts | 203° |
| 2026-05-08 13:07 | 50.65769 | 3.88566 | 23101 ft | 439 kts | 202° |
| 2026-05-08 13:07 | 50.62935 | 3.86781 | 23099 ft | 439 kts | 202° |
| 2026-05-08 13:08 | 50.60070 | 3.85128 | 23102 ft | 439 kts | 197° |
| 2026-05-08 13:08 | 50.57076 | 3.84156 | 23093 ft | 440 kts | 188° |
| 2026-05-08 13:08 | 50.54013 | 3.83943 | 23092 ft | 442 kts | 179° |
| 2026-05-08 13:08 | 50.50941 | 3.84393 | 23089 ft | 443 kts | 175° |
| 2026-05-08 13:09 | 50.47886 | 3.84926 | 23088 ft | 443 kts | 175° |
| 2026-05-08 13:09 | 50.44824 | 3.85452 | 23086 ft | 443 kts | 175° |
| 2026-05-08 13:09 | 50.41762 | 3.85972 | 23085 ft | 443 kts | 175° |
| 2026-05-08 13:09 | 50.38699 | 3.86491 | 23084 ft | 443 kts | 175° |
| 2026-05-08 13:10 | 50.35631 | 3.87015 | 23079 ft | 443 kts | 175° |
| 2026-05-08 13:10 | 50.32569 | 3.87540 | 23084 ft | 443 kts | 175° |
| 2026-05-08 13:10 | 50.29506 | 3.88064 | 23086 ft | 443 kts | 175° |
| 2026-05-08 13:10 | 50.26450 | 3.88585 | 23081 ft | 443 kts | 175° |
| 2026-05-08 13:11 | 50.23389 | 3.89108 | 23088 ft | 443 kts | 175° |
| 2026-05-08 13:11 | 50.20316 | 3.89634 | 23086 ft | 443 kts | 175° |
| 2026-05-08 13:11 | 50.17262 | 3.90156 | 23086 ft | 443 kts | 175° |
| 2026-05-08 13:11 | 50.14200 | 3.90674 | 23084 ft | 443 kts | 175° |
| 2026-05-08 13:12 | 50.11140 | 3.91193 | 23078 ft | 443 kts | 175° |
| 2026-05-08 13:12 | 50.08071 | 3.91714 | 23078 ft | 443 kts | 175° |
| 2026-05-08 13:12 | 50.05013 | 3.92235 | 23078 ft | 443 kts | 175° |
| 2026-05-08 13:12 | 50.01950 | 3.92755 | 23079 ft | 443 kts | 175° |
| 2026-05-08 13:13 | 49.98885 | 3.93273 | 23074 ft | 443 kts | 175° |
| 2026-05-08 13:13 | 49.95851 | 3.93787 | 23076 ft | 443 kts | 175° |
| 2026-05-08 13:13 | 49.92785 | 3.94308 | 23078 ft | 443 kts | 175° |
| 2026-05-08 13:13 | 49.89719 | 3.94822 | 23079 ft | 443 kts | 175° |
| 2026-05-08 13:14 | 49.86651 | 3.95330 | 23077 ft | 443 kts | 175° |
| 2026-05-08 13:14 | 49.83578 | 3.95839 | 23080 ft | 444 kts | 175° |
| 2026-05-08 13:14 | 49.80501 | 3.96355 | 23079 ft | 444 kts | 175° |
| 2026-05-08 13:14 | 49.77439 | 3.96869 | 23081 ft | 444 kts | 175° |
| 2026-05-08 13:15 | 49.74363 | 3.97388 | 23081 ft | 444 kts | 175° |
| 2026-05-08 13:15 | 49.71292 | 3.97905 | 23082 ft | 444 kts | 175° |
| 2026-05-08 13:15 | 49.68229 | 3.98416 | 23081 ft | 444 kts | 175° |
| 2026-05-08 13:15 | 49.65152 | 3.98874 | 23072 ft | 442 kts | 179° |
| 2026-05-08 13:16 | 49.62099 | 3.98610 | 23064 ft | 439 kts | 191° |
| 2026-05-08 13:16 | 49.59204 | 3.97392 | 22809 ft | 422 kts | 203° |
| 2026-05-08 13:16 | 49.56647 | 3.95368 | 22528 ft | 406 kts | 214° |
| 2026-05-08 13:16 | 49.54433 | 3.92741 | 22248 ft | 399 kts | 223° |
| 2026-05-08 13:17 | 49.52547 | 3.89638 | 21495 ft | 398 kts | 232° |
| 2026-05-08 13:17 | 49.51008 | 3.86113 | 20906 ft | 393 kts | 237° |
| 2026-05-08 13:17 | 49.49557 | 3.82643 | 20316 ft | 389 kts | 237° |
| 2026-05-08 13:17 | 49.48133 | 3.79118 | 19691 ft | 387 kts | 242° |
| 2026-05-08 13:18 | 49.47084 | 3.75332 | 19111 ft | 384 kts | 252° |
| 2026-05-08 13:18 | 49.46384 | 3.71380 | 18532 ft | 381 kts | 255° |
| 2026-05-08 13:18 | 49.45720 | 3.67452 | 17934 ft | 378 kts | 255° |
| 2026-05-08 13:18 | 49.45064 | 3.63554 | 17308 ft | 375 kts | 255° |
| 2026-05-08 13:19 | 49.44410 | 3.59684 | 16713 ft | 373 kts | 254° |
| 2026-05-08 13:19 | 49.43760 | 3.55846 | 16133 ft | 370 kts | 254° |
| 2026-05-08 13:19 | 49.43110 | 3.52018 | 15575 ft | 368 kts | 254° |
| 2026-05-08 13:19 | 49.42464 | 3.48213 | 15188 ft | 376 kts | 254° |
| 2026-05-08 13:20 | 49.41790 | 3.44257 | 14802 ft | 378 kts | 254° |
| 2026-05-08 13:20 | 49.41148 | 3.40482 | 14436 ft | 354 kts | 253° |
| 2026-05-08 13:20 | 49.40306 | 3.37048 | 14077 ft | 338 kts | 246° |
| 2026-05-08 13:20 | 49.39398 | 3.33756 | 13696 ft | 334 kts | 246° |
| 2026-05-08 13:21 | 49.38500 | 3.30471 | 13298 ft | 333 kts | 246° |
| 2026-05-08 13:21 | 49.37613 | 3.27215 | 13034 ft | 330 kts | 246° |
| 2026-05-08 13:21 | 49.36728 | 3.23973 | 12771 ft | 328 kts | 246° |
| 2026-05-08 13:21 | 49.35840 | 3.20742 | 12510 ft | 327 kts | 246° |
| 2026-05-08 13:22 | 49.34956 | 3.17542 | 12252 ft | 326 kts | 246° |
| 2026-05-08 13:22 | 49.34070 | 3.14346 | 11998 ft | 325 kts | 246° |
| 2026-05-08 13:22 | 49.33186 | 3.11168 | 11745 ft | 323 kts | 246° |
| 2026-05-08 13:22 | 49.32301 | 3.08001 | 11487 ft | 323 kts | 246° |
| 2026-05-08 13:23 | 49.31421 | 3.04841 | 11238 ft | 322 kts | 246° |
| 2026-05-08 13:23 | 49.30545 | 3.01691 | 10986 ft | 321 kts | 246° |
| 2026-05-08 13:23 | 49.29671 | 2.98546 | 10744 ft | 320 kts | 246° |
| 2026-05-08 13:23 | 49.28803 | 2.95420 | 10498 ft | 321 kts | 246° |
| 2026-05-08 13:24 | 49.27939 | 2.92309 | 10248 ft | 313 kts | 246° |
| 2026-05-08 13:24 | 49.27111 | 2.89336 | 10078 ft | 302 kts | 246° |
| 2026-05-08 13:24 | 49.26303 | 2.86435 | 9990 ft | 290 kts | 246° |
| 2026-05-08 13:24 | 49.25523 | 2.83644 | 9857 ft | 282 kts | 246° |
| 2026-05-08 13:25 | 49.24751 | 2.80897 | 9719 ft | 281 kts | 246° |
| 2026-05-08 13:25 | 49.23980 | 2.78162 | 9582 ft | 280 kts | 246° |
| 2026-05-08 13:25 | 49.23207 | 2.75427 | 9452 ft | 280 kts | 246° |
| 2026-05-08 13:25 | 49.22434 | 2.72689 | 9317 ft | 279 kts | 246° |
| 2026-05-08 13:26 | 49.21666 | 2.69967 | 9190 ft | 279 kts | 246° |
| 2026-05-08 13:26 | 49.20898 | 2.67236 | 9053 ft | 279 kts | 246° |
| 2026-05-08 13:26 | 49.20130 | 2.64508 | 8920 ft | 278 kts | 246° |
| 2026-05-08 13:26 | 49.19365 | 2.61800 | 8788 ft | 278 kts | 246° |
| 2026-05-08 13:27 | 49.18667 | 2.59036 | 8652 ft | 278 kts | 252° |
| 2026-05-08 13:27 | 49.18212 | 2.56161 | 8527 ft | 279 kts | 260° |
| 2026-05-08 13:27 | 49.18013 | 2.53216 | 8365 ft | 277 kts | 268° |
| 2026-05-08 13:27 | 49.17921 | 2.50339 | 7694 ft | 273 kts | 261° |
| 2026-05-08 13:28 | 49.17453 | 2.47498 | 7181 ft | 272 kts | 253° |
| 2026-05-08 13:28 | 49.16888 | 2.44758 | 7055 ft | 276 kts | 252° |
| 2026-05-08 13:28 | 49.16303 | 2.41966 | 7056 ft | 276 kts | 252° |
| 2026-05-08 13:28 | 49.15714 | 2.39166 | 7061 ft | 278 kts | 252° |
| 2026-05-08 13:29 | 49.15121 | 2.36350 | 7058 ft | 277 kts | 252° |
| 2026-05-08 13:29 | 49.14530 | 2.33546 | 7057 ft | 277 kts | 252° |
| 2026-05-08 13:29 | 49.13940 | 2.30745 | 7058 ft | 277 kts | 252° |
| 2026-05-08 13:29 | 49.13349 | 2.27945 | 7056 ft | 277 kts | 252° |
| 2026-05-08 13:30 | 49.12760 | 2.25155 | 6803 ft | 275 kts | 252° |
| 2026-05-08 13:30 | 49.12053 | 2.22454 | 6367 ft | 274 kts | 238° |
| 2026-05-08 13:30 | 49.10954 | 2.20081 | 5923 ft | 274 kts | 232° |
| 2026-05-08 13:30 | 49.09802 | 2.17785 | 5503 ft | 272 kts | 232° |
| 2026-05-08 13:31 | 49.08650 | 2.15496 | 5095 ft | 271 kts | 232° |
| 2026-05-08 13:31 | 49.07523 | 2.13239 | 5003 ft | 272 kts | 232° |
| 2026-05-08 13:31 | 49.06373 | 2.10937 | 5009 ft | 273 kts | 232° |
| 2026-05-08 13:31 | 49.05212 | 2.08624 | 5007 ft | 274 kts | 230° |
| 2026-05-08 13:32 | 49.03732 | 2.06852 | 5007 ft | 272 kts | 202° |
| 2026-05-08 13:32 | 49.01902 | 2.06348 | 5010 ft | 268 kts | 174° |
| 2026-05-08 13:32 | 49.00161 | 2.07216 | 5007 ft | 264 kts | 144° |
| 2026-05-08 13:32 | 48.98785 | 2.09054 | 5009 ft | 264 kts | 133° |
| 2026-05-08 13:33 | 48.97689 | 2.11214 | 4997 ft | 247 kts | 117° |
| 2026-05-08 13:33 | 48.97134 | 2.13515 | 5001 ft | 219 kts | 100° |
| 2026-05-08 13:33 | 48.97019 | 2.15719 | 5006 ft | 202 kts | 86° |
| 2026-05-08 13:33 | 48.97134 | 2.17788 | 5008 ft | 191 kts | 84° |
| 2026-05-08 13:34 | 48.97250 | 2.19795 | 4984 ft | 191 kts | 84° |
| 2026-05-08 13:34 | 48.97362 | 2.21760 | 4822 ft | 183 kts | 84° |
| 2026-05-08 13:34 | 48.97470 | 2.23658 | 4608 ft | 174 kts | 84° |
| 2026-05-08 13:34 | 48.97538 | 2.24846 | 4436 ft | 167 kts | 84° |
| 2026-05-08 13:35 | 48.97666 | 2.27115 | 4148 ft | 155 kts | 84° |
| 2026-05-08 13:35 | 48.97756 | 2.28710 | 3941 ft | 147 kts | 84° |
| 2026-05-08 13:35 | 48.97813 | 2.29726 | 3808 ft | 144 kts | 84° |
| 2026-05-08 13:35 | 48.97927 | 2.31758 | 3560 ft | 143 kts | 84° |
| 2026-05-08 13:36 | 48.98010 | 2.33247 | 3375 ft | 143 kts | 84° |
| 2026-05-08 13:36 | 48.98067 | 2.34260 | 3245 ft | 141 kts | 84° |
| 2026-05-08 13:36 | 48.98177 | 2.36233 | 2988 ft | 142 kts | 84° |
| 2026-05-08 13:36 | 48.98260 | 2.37724 | 2805 ft | 141 kts | 84° |
| 2026-05-08 13:37 | 48.98316 | 2.38733 | 2678 ft | 141 kts | 84° |
| 2026-05-08 13:37 | 48.98398 | 2.40214 | 2489 ft | 141 kts | 84° |
| 2026-05-08 13:37 | 48.98480 | 2.41698 | 2300 ft | 139 kts | 83° |
| 2026-05-08 13:37 | 48.98560 | 2.43147 | 2118 ft | 139 kts | 83° |
| 2026-05-08 13:38 | 48.98641 | 2.44617 | 1933 ft | 139 kts | 83° |
| 2026-05-08 13:38 | 48.98721 | 2.46090 | 1743 ft | 139 kts | 83° |
| 2026-05-08 13:38 | 48.98802 | 2.47554 | 1553 ft | 139 kts | 84° |
| 2026-05-08 13:38 | 48.98852 | 2.48474 | 1434 ft | 139 kts | 85° |
| 2026-05-08 13:39 | 48.98865 | 2.48703 | 1399 ft | 140 kts | 86° |
| 2026-05-08 13:39 | 48.98954 | 2.50164 | 1151 ft | 139 kts | 85° |
| 2026-05-08 13:39 | 48.99035 | 2.51626 | 962 ft | 138 kts | 85° |
| 2026-05-08 13:39 | 48.99110 | 2.53104 | 824 ft | 139 kts | 84° |
| 2026-05-08 13:40 | 48.99193 | 2.54564 | 640 ft | 137 kts | 85° |
| 2026-05-08 13:40 | 48.99276 | 2.56004 | 455 ft | 135 kts | 85° |
| 2026-05-08 13:40 | 48.99340 | 2.57402 | 359 ft | 121 kts | 86° |
| 2026-05-08 13:40 | 48.99392 | 2.58422 | 353 ft | 72 kts | 84° |
| 2026-05-08 13:41 | 48.99420 | 2.58918 | 352 ft | 22 kts | 85° |
| 2026-05-08 13:41 | 48.99432 | 2.59107 | 351 ft | 19 kts | 84° |
| 2026-05-08 13:41 | 48.99489 | 2.59294 | 354 ft | 20 kts | 50° |
| 2026-05-08 13:41 | 48.99536 | 2.59472 | 356 ft | 18 kts | 75° |
| 2026-05-08 13:42 | 48.99577 | 2.59611 | 361 ft | 12 kts | 62° |
| 2026-05-08 13:42 | 48.99644 | 2.59692 | 359 ft | 13 kts | 8° |
| 2026-05-08 13:42 | 48.99700 | 2.59685 | 354 ft | 6 kts | 355° |
| 2026-05-08 13:42 | 48.99702 | 2.59685 | 354 ft | 0 kts | 356° |
| 2026-05-08 13:44 | 48.99708 | 2.59685 | 354 ft | 4 kts | 355° |
| 2026-05-08 13:44 | 48.99772 | 2.59677 | 353 ft | 14 kts | 356° |
| 2026-05-08 13:45 | 48.99876 | 2.59666 | 353 ft | 14 kts | 355° |
| 2026-05-08 13:45 | 48.99970 | 2.59654 | 354 ft | 10 kts | 355° |
| 2026-05-08 13:45 | 49.00027 | 2.59647 | 354 ft | 8 kts | 355° |
| 2026-05-08 13:45 | 49.00079 | 2.59640 | 354 ft | 7 kts | 355° |
| 2026-05-08 13:46 | 49.00128 | 2.59634 | 354 ft | 7 kts | 355° |
| 2026-05-08 13:46 | 49.00173 | 2.59627 | 357 ft | 6 kts | 354° |
| 2026-05-08 13:46 | 49.00214 | 2.59622 | 354 ft | 6 kts | 356° |
| 2026-05-08 13:46 | 49.00276 | 2.59616 | 354 ft | 11 kts | 357° |
| 2026-05-08 13:47 | 49.00371 | 2.59608 | 354 ft | 16 kts | 356° |
| 2026-05-08 13:47 | 49.00493 | 2.59594 | 354 ft | 19 kts | 354° |
| 2026-05-08 13:47 | 49.00627 | 2.59578 | 354 ft | 20 kts | 352° |
| 2026-05-08 13:47 | 49.00751 | 2.59558 | 354 ft | 18 kts | 356° |
| 2026-05-08 13:48 | 49.00878 | 2.59545 | 354 ft | 18 kts | 354° |
| 2026-05-08 13:48 | 49.00994 | 2.59514 | 360 ft | 14 kts | 313° |
| 2026-05-08 13:48 | 49.00999 | 2.59371 | 360 ft | 13 kts | 265° |
| 2026-05-08 13:48 | 49.00991 | 2.59232 | 354 ft | 13 kts | 265° |
| 2026-05-08 13:49 | 49.00983 | 2.59095 | 354 ft | 14 kts | 265° |
| 2026-05-08 13:49 | 49.00955 | 2.58909 | 359 ft | 22 kts | 260° |
| 2026-05-08 13:49 | 49.00939 | 2.58698 | 358 ft | 21 kts | 268° |
| 2026-05-08 13:49 | 49.00930 | 2.58443 | 356 ft | 28 kts | 262° |
| 2026-05-08 13:50 | 49.00907 | 2.58218 | 354 ft | 21 kts | 266° |
| 2026-05-08 13:50 | 49.00900 | 2.57992 | 354 ft | 21 kts | 266° |
| 2026-05-08 13:50 | 49.00890 | 2.57771 | 360 ft | 21 kts | 265° |
| 2026-05-08 13:50 | 49.00878 | 2.57559 | 361 ft | 20 kts | 266° |
| 2026-05-08 13:51 | 49.00871 | 2.57359 | 357 ft | 15 kts | 265° |
| 2026-05-08 13:51 | 49.00857 | 2.57229 | 357 ft | 12 kts | 250° |
| 2026-05-08 13:51 | 49.00789 | 2.57219 | 360 ft | 10 kts | 171° |
| 2026-05-08 13:51 | 49.00730 | 2.57245 | 356 ft | 8 kts | 147° |
| 2026-05-08 13:52 | 49.00694 | 2.57302 | 363 ft | 5 kts | 135° |
| 2026-05-08 13:52 | 49.00682 | 2.57320 | 359 ft | 1 kts | 135° |
| 2026-05-08 13:52 | 49.00680 | 2.57323 | 359 ft | 0 kts | 135° |
| 2026-05-08 13:52 | 49.00678 | 2.57326 | 359 ft | 0 kts | 135° |